createdAt,value
2024-03-08T00:00:14.387Z,14.51
2024-03-08T00:02:55.291Z,14.57
2024-03-08T00:05:22.767Z,14.35
2024-03-08T00:07:49.693Z,14.32
2024-03-08T00:10:18.112Z,14.26
2024-03-08T00:12:47.497Z,14.28
2024-03-08T00:15:17.605Z,14.24
2024-03-08T00:17:46.628Z,14.34
2024-03-08T00:20:14.812Z,14.37
2024-03-08T00:22:42.129Z,14.27
2024-03-08T00:25:13.418Z,14.32
2024-03-08T00:27:40.565Z,14.35
2024-03-08T00:30:08.381Z,14.30
2024-03-08T00:32:35.554Z,14.36
2024-03-08T00:35:02.880Z,14.38
2024-03-08T00:37:29.851Z,14.43
2024-03-08T00:39:56.813Z,14.35
2024-03-08T00:42:24.224Z,14.32
2024-03-08T00:44:52.795Z,14.38
2024-03-08T00:47:20.497Z,14.39
2024-03-08T00:49:47.977Z,14.44
2024-03-08T00:52:16.010Z,14.42
2024-03-08T00:54:44.908Z,14.36
2024-03-08T00:57:13.158Z,14.37
2024-03-08T00:59:40.491Z,14.44
2024-03-08T01:02:07.678Z,14.34
2024-03-08T01:04:34.696Z,14.43
2024-03-08T01:07:02.057Z,14.38
2024-03-08T01:09:29.553Z,14.48
2024-03-08T01:11:56.732Z,14.50
2024-03-08T01:14:24.901Z,14.50
2024-03-08T01:16:51.974Z,14.51
2024-03-08T01:19:19.146Z,14.49
2024-03-08T01:21:46.132Z,14.47
2024-03-08T01:24:13.291Z,14.41
2024-03-08T01:26:40.443Z,14.44
2024-03-08T01:29:07.356Z,14.42
2024-03-08T01:31:34.815Z,14.44
2024-03-08T01:34:01.690Z,14.47
2024-03-08T01:36:28.580Z,14.53
2024-03-08T01:38:55.657Z,14.49
2024-03-08T01:41:22.607Z,14.53
2024-03-08T01:43:51.385Z,14.50
2024-03-08T01:46:20.632Z,14.45
2024-03-08T01:48:47.966Z,14.47
2024-03-08T01:51:16.451Z,14.48
2024-03-08T01:53:47.165Z,14.48
2024-03-08T01:56:15.656Z,14.43
2024-03-08T01:58:48.078Z,14.46
2024-03-08T02:01:16.646Z,14.42
2024-03-08T02:03:46.078Z,14.48
2024-03-08T02:06:15.966Z,14.41
2024-03-08T02:08:47.121Z,14.40
2024-03-08T02:11:15.363Z,14.39
2024-03-08T02:13:42.779Z,14.38
2024-03-08T02:16:10.104Z,14.34
2024-03-08T02:18:38.288Z,14.43
2024-03-08T02:21:07.340Z,14.38
2024-03-08T02:23:35.170Z,14.39
2024-03-08T02:26:02.402Z,14.33
2024-03-08T02:28:32.027Z,14.35
2024-03-08T02:30:59.252Z,14.36
2024-03-08T02:33:28.431Z,14.43
2024-03-08T02:35:56.751Z,14.39
2024-03-08T02:38:26.052Z,14.47
2024-03-08T02:40:54.607Z,14.45
2024-03-08T02:43:26.129Z,14.34
2024-03-08T02:45:56.306Z,14.37
2024-03-08T02:48:23.860Z,14.36
2024-03-08T02:50:52.530Z,14.43
2024-03-08T02:53:23.446Z,14.46
2024-03-08T02:55:50.748Z,14.35
2024-03-08T02:58:17.727Z,14.30
2024-03-08T03:00:45.778Z,14.25
2024-03-08T03:03:13.227Z,14.31
2024-03-08T03:05:45.337Z,14.16
2024-03-08T03:08:14.540Z,14.20
2024-03-08T03:10:41.508Z,14.25
2024-03-08T03:13:10.002Z,14.21
2024-03-08T03:15:37.922Z,14.19
2024-03-08T03:18:09.218Z,14.22
2024-03-08T03:20:42.041Z,14.21
2024-03-08T03:23:16.450Z,14.23
2024-03-08T03:25:44.178Z,14.14
2024-03-08T03:28:12.467Z,14.09
2024-03-08T03:30:40.391Z,14.07
2024-03-08T03:33:11.386Z,14.00
2024-03-08T03:35:39.168Z,14.02
2024-03-08T03:38:10.523Z,13.94
2024-03-08T03:40:41.041Z,13.92
2024-03-08T03:43:08.853Z,14.03
2024-03-08T03:45:37.409Z,14.12
2024-03-08T03:48:11.306Z,14.09
2024-03-08T03:50:39.753Z,14.12
2024-03-08T03:53:10.743Z,14.10
2024-03-08T03:55:40.845Z,14.15
2024-03-08T03:58:11.511Z,14.01
2024-03-08T04:00:39.136Z,13.96
2024-03-08T04:03:06.272Z,14.00
2024-03-08T04:05:33.310Z,14.00
2024-03-08T04:08:00.185Z,13.94
2024-03-08T04:10:27.035Z,14.01
2024-03-08T04:12:53.899Z,13.98
2024-03-08T04:15:21.871Z,14.06
2024-03-08T04:17:48.934Z,13.85
2024-03-08T04:20:16.506Z,13.96
2024-03-08T04:22:45.511Z,14.01
2024-03-08T04:25:12.588Z,13.90
2024-03-08T04:27:39.577Z,13.94
2024-03-08T04:30:09.024Z,13.99
2024-03-08T04:32:36.892Z,13.90
2024-03-08T04:35:04.945Z,13.92
2024-03-08T04:37:32.270Z,13.88
2024-03-08T04:39:59.731Z,13.86
2024-03-08T04:42:31.139Z,13.86
2024-03-08T04:44:58.681Z,13.88
2024-03-08T04:47:26.356Z,13.77
2024-03-08T04:49:53.440Z,13.73
2024-03-08T04:52:20.340Z,13.79
2024-03-08T04:54:47.226Z,13.78
2024-03-08T04:57:14.322Z,13.79
2024-03-08T04:59:41.399Z,13.89
2024-03-08T05:02:08.678Z,13.86
2024-03-08T05:04:36.456Z,13.87
2024-03-08T05:07:03.711Z,13.86
2024-03-08T05:09:32.974Z,13.93
2024-03-08T05:12:00.401Z,14.00
2024-03-08T05:14:27.378Z,14.02
2024-03-08T05:16:54.447Z,14.03
2024-03-08T05:19:22.337Z,14.07
2024-03-08T05:21:50.843Z,14.09
2024-03-08T05:24:19.181Z,14.11
2024-03-08T05:26:47.976Z,14.12
2024-03-08T05:29:15.894Z,14.16
2024-03-08T05:31:51.124Z,14.07
2024-03-08T05:34:18.387Z,14.16
2024-03-08T05:36:46.228Z,14.21
2024-03-08T05:39:15.863Z,14.13
2024-03-08T05:41:47.018Z,14.16
2024-03-08T05:44:14.785Z,14.16
2024-03-08T05:46:41.757Z,14.14
2024-03-08T05:49:11.427Z,14.20
2024-03-08T05:51:40.524Z,14.22
2024-03-08T05:54:13.429Z,14.29
2024-03-08T05:56:45.956Z,14.23
2024-03-08T05:59:14.444Z,14.31
2024-03-08T06:01:43.226Z,14.36
2024-03-08T06:04:12.730Z,14.40
2024-03-08T06:06:41.197Z,14.36
2024-03-08T06:09:12.243Z,14.39
2024-03-08T06:11:39.484Z,14.39
2024-03-08T06:14:07.687Z,14.38
2024-03-08T06:16:35.033Z,14.32
2024-03-08T06:19:03.927Z,14.31
2024-03-08T06:21:30.841Z,14.42
2024-03-08T06:23:59.287Z,14.36
2024-03-08T06:26:30.699Z,14.44
2024-03-08T06:28:59.091Z,14.44
2024-03-08T06:31:26.230Z,14.40
2024-03-08T06:33:56.254Z,14.44
2024-03-08T06:36:24.093Z,14.38
2024-03-08T06:38:51.417Z,14.46
2024-03-08T06:41:18.581Z,14.43
2024-03-08T06:43:46.764Z,14.47
2024-03-08T06:46:14.203Z,14.49
2024-03-08T06:48:41.467Z,14.54
2024-03-08T06:51:08.992Z,14.56
2024-03-08T06:53:39.902Z,14.62
2024-03-08T06:56:09.175Z,14.66
2024-03-08T06:58:36.833Z,14.65
2024-03-08T07:01:05.655Z,14.66
2024-03-08T07:03:33.783Z,14.71
2024-03-08T07:06:03.606Z,14.73
2024-03-08T07:08:31.235Z,14.75
2024-03-08T07:10:59.737Z,14.77
2024-03-08T07:13:28.496Z,14.80
2024-03-08T07:15:56.368Z,14.75
2024-03-08T07:18:23.441Z,14.70
2024-03-08T07:20:53.152Z,14.68
2024-03-08T07:23:38.841Z,14.69
2024-03-08T07:26:05.842Z,14.67
2024-03-08T07:28:32.747Z,14.66
2024-03-08T07:31:18.321Z,14.64
2024-03-08T07:33:45.774Z,14.62
2024-03-08T07:36:13.237Z,14.59
2024-03-08T07:38:40.401Z,14.61
2024-03-08T07:41:07.404Z,14.67
2024-03-08T07:43:34.520Z,14.68
2024-03-08T07:46:01.640Z,14.80
2024-03-08T07:48:28.632Z,14.82
2024-03-08T07:50:55.820Z,14.81
2024-03-08T07:53:22.920Z,14.91
2024-03-08T07:55:49.953Z,14.90
2024-03-08T07:58:18.592Z,14.86
2024-03-08T08:00:45.504Z,14.88
2024-03-08T08:03:13.718Z,14.43
2024-03-08T08:05:40.850Z,14.20
2024-03-08T08:08:11.579Z,14.03
2024-03-08T08:10:39.082Z,13.86
2024-03-08T08:13:06.373Z,13.41
2024-03-08T08:15:35.591Z,13.01
2024-03-08T08:18:04.102Z,12.82
2024-03-08T08:20:31.169Z,12.80
2024-03-08T08:23:00.194Z,12.74
2024-03-08T08:25:27.326Z,12.74
2024-03-08T08:27:54.969Z,12.83
2024-03-08T08:30:22.023Z,12.98
2024-03-08T08:32:50.044Z,12.99
2024-03-08T08:35:17.703Z,12.88
2024-03-08T08:37:45.599Z,12.90
2024-03-08T08:40:16.373Z,12.93
2024-03-08T08:42:43.951Z,13.07
2024-03-08T08:45:16.197Z,13.37
2024-03-08T08:47:48.325Z,13.68
2024-03-08T08:50:15.364Z,13.93
2024-03-08T08:52:44.989Z,14.27
2024-03-08T08:55:16.217Z,14.44
2024-03-08T08:57:43.933Z,14.64
2024-03-08T09:00:16.468Z,14.89
2024-03-08T09:02:44.523Z,14.86
2024-03-08T09:05:12.789Z,15.01
2024-03-08T09:07:40.299Z,15.10
2024-03-08T09:10:17.129Z,14.80
2024-03-08T09:12:46.133Z,14.63
2024-03-08T09:15:13.710Z,14.30
2024-03-08T09:17:42.055Z,14.16
2024-03-08T09:20:11.608Z,14.11
2024-03-08T09:22:38.954Z,14.31
2024-03-08T09:25:06.486Z,14.29
2024-03-08T09:27:33.459Z,14.54
2024-03-08T09:30:00.304Z,14.65
2024-03-08T09:32:27.798Z,14.95
2024-03-08T09:34:55.017Z,15.08
2024-03-08T09:37:21.944Z,15.42
2024-03-08T09:39:49.468Z,15.54
2024-03-08T09:42:17.589Z,15.76
2024-03-08T09:44:48.404Z,15.98
2024-03-08T09:47:16.253Z,16.20
2024-03-08T09:49:44.539Z,16.32
2024-03-08T09:52:13.673Z,16.51
2024-03-08T09:54:41.348Z,16.48
2024-03-08T09:57:10.303Z,16.59
2024-03-08T09:59:37.360Z,16.80
2024-03-08T10:02:04.625Z,16.85
2024-03-08T10:04:34.561Z,16.86
2024-03-08T10:07:03.004Z,17.04
2024-03-08T10:09:29.952Z,17.19
2024-03-08T10:12:00.199Z,17.33
2024-03-08T10:14:27.887Z,17.48
2024-03-08T10:16:55.298Z,17.59
2024-03-08T10:19:25.322Z,17.68
2024-03-08T10:21:54.878Z,17.58
2024-03-08T10:24:21.842Z,17.69
2024-03-08T10:26:48.954Z,17.76
2024-03-08T10:29:18.834Z,17.77
2024-03-08T10:31:48.611Z,17.74
2024-03-08T10:34:15.706Z,17.64
2024-03-08T10:36:42.707Z,17.73
2024-03-08T10:39:26.005Z,17.51
2024-03-08T10:42:02.870Z,17.77
2024-03-08T10:44:41.750Z,17.66
2024-03-08T10:47:31.406Z,17.57
2024-03-08T10:50:24.037Z,17.56
2024-03-08T10:52:52.745Z,17.68
2024-03-08T10:55:23.829Z,17.73
2024-03-08T10:57:50.852Z,17.77
2024-03-08T11:00:20.139Z,17.96
2024-03-08T11:02:47.354Z,18.04
2024-03-08T11:05:41.603Z,17.77
2024-03-08T11:08:22.467Z,18.09
2024-03-08T11:10:55.184Z,18.24
2024-03-08T11:13:42.031Z,18.26
2024-03-08T11:16:13.734Z,18.26
2024-03-08T11:18:41.029Z,18.27
2024-03-08T11:21:14.131Z,18.24
2024-03-08T11:23:41.382Z,18.11
2024-03-08T11:26:26.226Z,18.13
2024-03-08T11:28:54.651Z,17.90
2024-03-08T11:31:27.010Z,17.93
2024-03-08T11:33:55.454Z,17.92
2024-03-08T11:36:25.387Z,18.00
2024-03-08T11:38:54.140Z,18.08
2024-03-08T11:41:23.024Z,18.36
2024-03-08T11:43:51.653Z,18.55
2024-03-08T11:46:19.391Z,18.71
2024-03-08T11:48:49.251Z,18.91
2024-03-08T11:51:20.045Z,18.96
2024-03-08T11:53:48.471Z,18.98
2024-03-08T11:56:16.878Z,19.09
2024-03-08T11:58:54.774Z,19.01
2024-03-08T12:01:21.860Z,19.13
2024-03-08T12:04:00.114Z,19.21
2024-03-08T12:06:28.625Z,19.29
2024-03-08T12:08:55.583Z,19.33
2024-03-08T12:11:24.989Z,19.40
2024-03-08T12:13:53.265Z,19.48
2024-03-08T12:16:20.909Z,19.34
2024-03-08T12:18:48.002Z,19.45
2024-03-08T12:21:18.685Z,19.36
2024-03-08T12:23:45.876Z,19.11
2024-03-08T12:26:24.560Z,19.10
2024-03-08T12:28:51.725Z,18.96
2024-03-08T12:31:18.995Z,18.93
2024-03-08T12:33:56.373Z,19.05
2024-03-08T12:36:24.832Z,19.26
2024-03-08T12:38:52.347Z,19.36
2024-03-08T12:41:20.509Z,19.42
2024-03-08T12:43:51.315Z,19.42
2024-03-08T12:46:22.293Z,19.55
2024-03-08T12:48:49.610Z,19.48
2024-03-08T12:51:19.416Z,19.49
2024-03-08T12:53:49.528Z,19.44
2024-03-08T12:56:29.688Z,19.39
2024-03-08T12:58:57.962Z,19.31
2024-03-08T13:01:25.407Z,19.45
2024-03-08T13:03:52.417Z,19.46
2024-03-08T13:06:20.742Z,19.57
2024-03-08T13:08:49.002Z,19.54
2024-03-08T13:11:16.108Z,19.26
2024-03-08T13:13:43.343Z,19.39
2024-03-08T13:16:10.336Z,19.49
2024-03-08T13:18:37.642Z,19.54
2024-03-08T13:21:09.460Z,19.44
2024-03-08T13:23:46.605Z,19.34
2024-03-08T13:26:16.252Z,19.47
2024-03-08T13:28:54.815Z,19.48
2024-03-08T13:31:22.515Z,19.62
2024-03-08T13:33:49.690Z,19.40
2024-03-08T13:36:17.253Z,19.13
2024-03-08T13:38:44.982Z,19.13
2024-03-08T13:41:13.189Z,19.00
2024-03-08T13:43:41.260Z,18.90
2024-03-08T13:46:08.776Z,18.78
2024-03-08T13:48:35.660Z,18.70
2024-03-08T13:51:02.589Z,18.91
2024-03-08T13:53:29.468Z,18.98
2024-03-08T13:55:57.783Z,19.11
2024-03-08T13:58:25.030Z,19.05
2024-03-08T14:00:52.856Z,18.86
2024-03-08T14:03:19.824Z,18.93
2024-03-08T14:05:48.023Z,19.02
2024-03-08T14:08:15.217Z,18.99
2024-03-08T14:10:43.690Z,19.13
2024-03-08T14:13:12.956Z,19.10
2024-03-08T14:15:43.445Z,19.04
2024-03-08T14:18:10.470Z,19.09
2024-03-08T14:20:37.383Z,19.05
2024-03-08T14:23:07.648Z,18.97
2024-03-08T14:25:35.102Z,18.96
2024-03-08T14:28:08.700Z,18.84
2024-03-08T14:30:36.727Z,18.85
2024-03-08T14:33:04.381Z,18.79
2024-03-08T14:35:31.339Z,18.81
2024-03-08T14:37:58.969Z,18.85
2024-03-08T14:40:27.310Z,18.86
2024-03-08T14:42:54.788Z,18.89
2024-03-08T14:45:21.810Z,18.96
2024-03-08T14:47:52.004Z,18.84
2024-03-08T14:50:26.638Z,18.91
2024-03-08T14:52:54.152Z,18.69
2024-03-08T14:55:26.398Z,18.67
2024-03-08T14:57:54.709Z,18.53
2024-03-08T15:00:28.434Z,18.34
2024-03-08T15:02:55.905Z,18.42
2024-03-08T15:05:27.686Z,18.42
2024-03-08T15:07:55.437Z,18.36
2024-03-08T15:10:25.941Z,18.27
2024-03-08T15:12:57.181Z,18.14
2024-03-08T15:15:25.897Z,18.10
2024-03-08T15:17:55.414Z,18.03
2024-03-08T15:20:30.054Z,17.89
2024-03-08T15:23:00.187Z,17.69
2024-03-08T15:25:27.693Z,17.57
2024-03-08T15:27:55.086Z,17.51
2024-03-08T15:30:32.290Z,17.45
2024-03-08T15:33:01.553Z,17.38
2024-03-08T15:35:28.543Z,17.41
2024-03-08T15:37:59.032Z,17.16
2024-03-08T15:40:26.519Z,17.24
2024-03-08T15:42:55.866Z,17.01
2024-03-08T15:45:30.769Z,17.12
2024-03-08T15:47:57.850Z,17.12
2024-03-08T15:50:25.094Z,16.83
2024-03-08T15:52:55.588Z,17.08
2024-03-08T15:55:26.547Z,17.07
2024-03-08T15:57:55.218Z,17.11
2024-03-08T16:00:37.513Z,17.21
2024-03-08T16:03:07.736Z,17.31
2024-03-08T16:05:35.695Z,17.13
2024-03-08T16:08:02.909Z,17.24
2024-03-08T16:10:30.596Z,17.15
2024-03-08T16:12:58.318Z,17.05
2024-03-08T16:15:27.243Z,17.14
2024-03-08T16:17:54.684Z,17.19
2024-03-08T16:20:22.889Z,17.18
2024-03-08T16:22:53.228Z,17.26
2024-03-08T16:25:21.622Z,17.32
2024-03-08T16:27:48.757Z,17.34
2024-03-08T16:30:18.707Z,17.30
2024-03-08T16:32:50.369Z,17.30
2024-03-08T16:35:19.944Z,17.39
2024-03-08T16:37:48.493Z,17.46
2024-03-08T16:40:18.881Z,17.42
2024-03-08T16:42:46.154Z,17.52
2024-03-08T16:45:15.601Z,17.53
2024-03-08T16:47:43.631Z,17.59
2024-03-08T16:50:14.285Z,17.57
2024-03-08T16:52:41.411Z,17.47
2024-03-08T16:55:14.704Z,17.53
2024-03-08T16:57:45.600Z,17.47
2024-03-08T17:00:19.645Z,17.34
2024-03-08T17:02:49.413Z,17.13
2024-03-08T17:05:20.377Z,17.18
2024-03-08T17:07:49.882Z,17.12
2024-03-08T17:10:20.595Z,17.12
2024-03-08T17:12:51.261Z,16.93
2024-03-08T17:15:24.211Z,17.03
2024-03-08T17:17:54.150Z,17.02
2024-03-08T17:20:23.418Z,17.02
2024-03-08T17:22:55.449Z,16.82
2024-03-08T17:25:26.351Z,16.89
2024-03-08T17:27:56.305Z,16.87
2024-03-08T17:30:25.248Z,16.78
2024-03-08T17:33:05.871Z,16.80
2024-03-08T17:35:35.495Z,16.71
2024-03-08T17:38:11.531Z,16.68
2024-03-08T17:40:41.051Z,16.71
2024-03-08T17:43:12.532Z,16.63
2024-03-08T17:45:43.959Z,16.62
2024-03-08T17:48:14.164Z,16.61
2024-03-08T17:50:42.851Z,16.64
2024-03-08T17:53:17.241Z,16.57
2024-03-08T17:55:46.008Z,16.56
2024-03-08T17:58:16.166Z,16.60
2024-03-08T18:00:45.006Z,16.60
2024-03-08T18:03:15.956Z,16.56
2024-03-08T18:05:45.050Z,16.55
2024-03-08T18:08:12.837Z,16.54
2024-03-08T18:10:42.447Z,16.50
2024-03-08T18:13:20.904Z,16.40
2024-03-08T18:15:48.751Z,16.42
2024-03-08T18:18:16.918Z,16.37
2024-03-08T18:20:50.615Z,16.26
2024-03-08T18:23:22.421Z,16.26
2024-03-08T18:25:50.699Z,16.19
2024-03-08T18:28:18.641Z,16.09
2024-03-08T18:30:50.059Z,16.01
2024-03-08T18:33:17.665Z,15.90
2024-03-08T18:35:45.499Z,15.90
2024-03-08T18:38:13.263Z,15.94
2024-03-08T18:40:47.080Z,15.97
2024-03-08T18:43:14.469Z,15.98
2024-03-08T18:45:43.518Z,15.94
2024-03-08T18:48:12.927Z,15.93
2024-03-08T18:50:40.945Z,15.93
2024-03-08T18:53:09.181Z,15.89
2024-03-08T18:55:36.505Z,15.90
2024-03-08T18:58:04.226Z,15.81
2024-03-08T19:00:35.967Z,15.81
2024-03-08T19:03:14.810Z,15.78
2024-03-08T19:05:43.382Z,15.81
2024-03-08T19:08:15.266Z,15.78
2024-03-08T19:10:43.738Z,15.78
2024-03-08T19:13:13.634Z,15.80
2024-03-08T19:15:44.305Z,15.77
2024-03-08T19:18:12.594Z,15.77
2024-03-08T19:20:39.902Z,15.79
2024-03-08T19:23:07.909Z,15.76
2024-03-08T19:25:36.908Z,15.77
2024-03-08T19:28:07.030Z,15.70
2024-03-08T19:30:37.690Z,15.71
2024-03-08T19:33:13.845Z,15.62
2024-03-08T19:35:42.176Z,15.69
2024-03-08T19:38:15.595Z,15.69
2024-03-08T19:40:44.188Z,15.63
2024-03-08T19:43:18.543Z,15.66
2024-03-08T19:45:46.633Z,15.59
2024-03-08T19:48:22.061Z,15.58
2024-03-08T19:50:51.068Z,15.59
2024-03-08T19:53:19.120Z,15.54
2024-03-08T19:55:54.179Z,15.54
2024-03-08T19:58:22.944Z,15.56
2024-03-08T20:00:50.925Z,15.59
2024-03-08T20:03:22.511Z,15.56
2024-03-08T20:05:52.800Z,15.54
2024-03-08T20:08:22.817Z,15.55
2024-03-08T20:10:49.895Z,15.47
2024-03-08T20:13:20.330Z,15.51
2024-03-08T20:15:53.822Z,15.46
2024-03-08T20:18:26.350Z,15.50
2024-03-08T20:20:55.344Z,15.50
2024-03-08T20:23:24.522Z,15.46
2024-03-08T20:25:52.230Z,15.47
2024-03-08T20:28:22.498Z,15.41
2024-03-08T20:30:49.484Z,15.38
2024-03-08T20:33:17.524Z,15.40
2024-03-08T20:35:51.041Z,15.40
2024-03-08T20:38:22.222Z,15.41
2024-03-08T20:40:51.406Z,15.30
2024-03-08T20:43:24.453Z,15.21
2024-03-08T20:45:51.634Z,15.17
2024-03-08T20:48:21.504Z,15.14
2024-03-08T20:50:50.827Z,15.14
2024-03-08T20:53:18.494Z,15.12
2024-03-08T20:55:46.072Z,15.10
2024-03-08T20:58:14.437Z,15.06
2024-03-08T21:00:42.110Z,14.98
2024-03-08T21:03:20.101Z,15.00
2024-03-08T21:05:51.623Z,15.01
2024-03-08T21:08:25.565Z,14.98
2024-03-08T21:10:54.739Z,14.86
2024-03-08T21:13:24.658Z,14.84
2024-03-08T21:15:54.009Z,14.82
2024-03-08T21:18:22.595Z,14.79
2024-03-08T21:20:50.357Z,14.74
2024-03-08T21:23:17.437Z,14.70
2024-03-08T21:25:44.830Z,14.70
2024-03-08T21:28:12.665Z,14.66
2024-03-08T21:30:40.796Z,14.66
2024-03-08T21:33:12.369Z,14.57
2024-03-08T21:35:40.675Z,14.56
2024-03-08T21:38:08.798Z,14.48
2024-03-08T21:40:53.134Z,14.37
2024-03-08T21:43:28.391Z,14.25
2024-03-08T21:45:55.905Z,14.27
2024-03-08T21:48:23.513Z,14.23
2024-03-08T21:50:51.275Z,14.21
2024-03-08T21:53:27.424Z,14.20
2024-03-08T21:56:00.874Z,14.14
2024-03-08T21:58:28.253Z,14.06
2024-03-08T22:00:55.233Z,13.89
2024-03-08T22:03:23.677Z,13.55
2024-03-08T22:05:53.974Z,13.50
2024-03-08T22:08:21.127Z,13.35
2024-03-08T22:10:48.280Z,13.39
2024-03-08T22:13:16.228Z,13.39
2024-03-08T22:15:49.587Z,13.31
2024-03-08T22:18:16.964Z,13.32
2024-03-08T22:20:47.200Z,13.40
2024-03-08T22:23:16.383Z,13.45
2024-03-08T22:25:43.749Z,13.39
2024-03-08T22:28:11.204Z,13.43
2024-03-08T22:30:38.384Z,13.44
2024-03-08T22:33:05.587Z,13.42
2024-03-08T22:35:34.668Z,13.38
2024-03-08T22:38:01.600Z,13.41
2024-03-08T22:40:28.731Z,13.39
2024-03-08T22:42:56.414Z,13.35
2024-03-08T22:45:25.049Z,13.34
2024-03-08T22:47:52.553Z,13.37
2024-03-08T22:50:19.912Z,13.32
2024-03-08T22:52:49.646Z,13.34
2024-03-08T22:55:21.657Z,13.31
2024-03-08T22:57:50.024Z,13.18
2024-03-08T23:00:38.272Z,13.21
2024-03-08T23:03:11.596Z,13.22
2024-03-08T23:05:42.268Z,13.17
2024-03-08T23:08:09.438Z,13.12
2024-03-08T23:10:40.246Z,12.95
2024-03-08T23:13:10.463Z,12.89
2024-03-08T23:15:43.578Z,12.95
2024-03-08T23:18:14.626Z,12.87
2024-03-08T23:20:45.060Z,12.87
2024-03-08T23:23:13.068Z,12.78
2024-03-08T23:25:41.509Z,12.75
2024-03-08T23:28:10.326Z,12.82
2024-03-08T23:30:45.584Z,12.87
2024-03-08T23:33:14.823Z,12.87
2024-03-08T23:35:44.825Z,12.91
2024-03-08T23:38:12.085Z,12.91
2024-03-08T23:40:41.395Z,12.86
2024-03-08T23:43:11.789Z,12.88
2024-03-08T23:45:41.763Z,12.76
2024-03-08T23:48:08.884Z,12.80
2024-03-08T23:50:38.584Z,12.82
2024-03-08T23:53:09.314Z,12.80
2024-03-08T23:55:39.283Z,12.70
2024-03-08T23:58:11.870Z,12.69
